Roby, Illinois
Current Conditions -  °F | °C
As of 10:52 PM on Thursday 30 Oct 2014 (Local Time) from KSPI Reporting Station
Broken Clouds Broken Clouds  
Wind Chill: 45°   Ceiling: 7000
Heat Index: 45°   Visibility: 10mi
Dew Point: 41°   Wind: 3mph
Humidity: 86%   Direction: 360°N
Pressure: 30.07"   Gusts: NA
Location:  39.766°N, 89.4108°W
Report Text: KSPI 310352Z AUTO 36003KT 10SM FEW041 BKN070 07/05 A3007 RMK AO2 SLP185 T00720050
Loading
Personal Weather Stations






























Interactive Weather Map
Tropical Storm Tracking
New forecast layout! Learn more

10-Day Weather Forecast

Advertisements
Track Severe Weather on mobile